Time;durP1;ratioP1;P1;durP2;ratioP2;P2;SDS_P1;SDS_P2;PMS_P1;PMS_P2;Temp;Humidity;BMP_temperature;BMP_pressure;BME280_temperature;BME280_humidity;BME280_pressure;Samples;Min_cycle;Max_cycle;Signal;HPM_P1;HPM_P2
2022/06/05 00:01:54;;;;;;;11.08;4.92;;;24.00;74.60;;;;;;1837270;77;21097;-59
2022/06/05 00:04:26;;;;;;;9.55;5.30;;;23.90;74.50;;;;;;1826539;77;21155;-60
2022/06/05 00:07:10;;;;;;;13.35;4.85;;;23.80;74.80;;;;;;1809761;79;21017;-60
2022/06/05 00:09:57;;;;;;;8.87;4.20;;;23.70;75.30;;;;;;1810850;79;21455;-59
2022/06/05 00:12:29;;;;;;;12.00;5.25;;;23.60;75.60;;;;;;1797992;79;21140;-59
2022/06/05 00:14:59;;;;;;;13.38;5.47;;;23.70;75.60;;;;;;1808436;79;21123;-59
2022/06/05 00:17:29;;;;;;;9.55;5.08;;;23.60;75.40;;;;;;1810465;79;21076;-59
2022/06/05 00:19:58;;;;;;;12.00;5.12;;;23.50;75.40;;;;;;1810569;79;21056;-59
2022/06/05 00:22:27;;;;;;;11.10;4.92;;;23.40;75.70;;;;;;1810479;79;21091;-59
2022/06/05 00:24:56;;;;;;;9.85;4.65;;;23.30;76.10;;;;;;1810398;79;21044;-60
2022/06/05 00:27:28;;;;;;;9.00;4.65;;;23.30;76.30;;;;;;1810658;79;21037;-60
2022/06/05 00:30:09;;;;;;;16.57;4.67;;;23.30;76.30;;;;;;1810704;79;21025;-59
2022/06/05 00:32:44;;;;;;;10.50;4.62;;;23.40;76.10;;;;;;1810533;79;21518;-59
2022/06/05 00:35:16;;;;;;;8.90;4.55;;;23.40;76.20;;;;;;1810684;79;21077;-59
2022/06/05 00:38:06;;;;;;;6.33;3.75;;;23.50;76.30;;;;;;1810597;78;21471;-59
2022/06/05 00:40:59;;;;;;;10.95;4.47;;;23.50;76.10;;;;;;1810759;79;21064;-59
2022/06/05 00:43:29;;;;;;;6.83;4.50;;;23.60;76.00;;;;;;1810581;79;21119;-59
2022/06/05 00:45:59;;;;;;;9.70;4.55;;;23.50;75.80;;;;;;1810600;79;21080;-59
2022/06/05 00:48:28;;;;;;;10.90;5.17;;;23.60;76.00;;;;;;1810594;79;21040;-59
2022/06/05 00:50:57;;;;;;;9.55;4.65;;;23.50;76.10;;;;;;1810555;79;21496;-59
2022/06/05 00:53:26;;;;;;;12.85;4.83;;;23.50;76.00;;;;;;1810577;79;21037;-59
2022/06/05 00:55:55;;;;;;;9.78;5.50;;;23.40;75.90;;;;;;1810551;79;21042;-60
2022/06/05 00:58:24;;;;;;;10.55;5.72;;;23.40;76.20;;;;;;1810763;79;21040;-59
2022/06/05 01:00:54;;;;;;;10.28;6.53;;;23.30;76.20;;;;;;1810583;78;21052;-59
2022/06/05 01:03:24;;;;;;;12.00;7.08;;;23.30;76.40;;;;;;1810736;79;21107;-59
2022/06/05 01:05:54;;;;;;;12.13;6.95;;;23.30;76.70;;;;;;1810685;78;21135;-59
2022/06/05 01:08:25;;;;;;;10.48;6.75;;;23.30;77.10;;;;;;1810623;79;21041;-59
2022/06/05 01:11:13;;;;;;;12.95;7.45;;;23.30;77.00;;;;;;1810550;79;21021;-60
2022/06/05 01:13:45;;;;;;;13.35;7.20;;;23.40;77.00;;;;;;1810691;79;21065;-60
2022/06/05 01:16:25;;;;;;;10.95;6.58;;;23.40;77.00;;;;;;1809594;79;21119;-60
2022/06/05 01:19:00;;;;;;;11.93;6.90;;;23.40;76.80;;;;;;1810347;79;21072;-59
2022/06/05 01:21:38;;;;;;;11.68;6.78;;;23.30;76.70;;;;;;1811863;79;21100;-60
2022/06/05 01:24:42;;;;;;;12.37;6.80;;;23.30;76.60;;;;;;1808949;78;21033;-59
2022/06/05 01:27:16;;;;;;;12.98;7.25;;;23.30;76.70;;;;;;1810639;79;21064;-59
2022/06/05 01:30:05;;;;;;;9.55;5.37;;;23.30;76.80;;;;;;1810825;79;21115;-60
2022/06/05 01:32:45;;;;;;;14.23;6.92;;;23.30;77.10;;;;;;1810189;78;21041;-60
2022/06/05 01:35:17;;;;;;;11.15;7.10;;;23.30;77.00;;;;;;1810034;79;21182;-60
2022/06/05 01:37:49;;;;;;;9.45;5.95;;;23.30;76.90;;;;;;1807775;79;21076;-60
2022/06/05 01:40:21;;;;;;;15.83;7.97;;;23.30;77.00;;;;;;1810679;79;21033;-60
2022/06/05 01:42:52;;;;;;;13.38;7.17;;;23.40;77.20;;;;;;1810630;79;21053;-60
2022/06/05 01:45:27;;;;;;;11.40;6.30;;;23.40;77.10;;;;;;1809577;79;21033;-60
2022/06/05 01:47:59;;;;;;;10.18;6.53;;;23.40;76.70;;;;;;1811241;79;21060;-60
2022/06/05 01:50:30;;;;;;;15.28;6.80;;;23.40;76.40;;;;;;1810586;79;21127;-60
2022/06/05 01:53:18;;;;;;;12.35;7.20;;;23.40;76.50;;;;;;1809697;79;21170;-60
2022/06/05 01:55:55;;;;;;;13.83;6.08;;;23.40;76.70;;;;;;1810289;79;21538;-60
2022/06/05 01:58:30;;;;;;;12.68;5.83;;;23.40;76.50;;;;;;1810625;79;21092;-60
2022/06/05 02:01:01;;;;;;;12.80;6.47;;;23.40;76.40;;;;;;1809991;78;21069;-60
2022/06/05 02:03:33;;;;;;;8.65;5.20;;;23.30;76.30;;;;;;1810716;79;21044;-60
2022/06/05 02:06:11;;;;;;;10.20;5.10;;;23.30;76.50;;;;;;1810371;79;21045;-60
2022/06/05 02:08:54;;;;;;;7.90;4.90;;;23.30;76.90;;;;;;1810535;78;21061;-60
2022/06/05 02:11:26;;;;;;;11.65;5.83;;;23.40;77.20;;;;;;1810047;79;21057;-60
2022/06/05 02:14:04;;;;;;;10.32;5.55;;;23.40;77.30;;;;;;1810529;79;21033;-60
2022/06/05 02:16:35;;;;;;;11.08;5.70;;;23.40;78.00;;;;;;1810653;79;21480;-59
2022/06/05 02:19:08;;;;;;;7.15;5.25;;;23.50;77.40;;;;;;1810636;79;21036;-60
2022/06/05 02:21:39;;;;;;;10.20;5.60;;;23.50;77.50;;;;;;1810653;79;21056;-60
2022/06/05 02:24:09;;;;;;;10.23;6.22;;;23.50;77.50;;;;;;1810538;79;21017;-60
2022/06/05 02:26:39;;;;;;;12.40;5.78;;;23.50;77.20;;;;;;1810535;79;21017;-60
2022/06/05 02:29:19;;;;;;;15.28;6.58;;;23.50;77.00;;;;;;1810546;79;21103;-60
2022/06/05 02:32:06;;;;;;;13.58;6.33;;;23.50;77.00;;;;;;1810673;79;21542;-59
2022/06/05 02:34:44;;;;;;;8.85;5.80;;;23.50;76.80;;;;;;1810421;79;21041;-60
2022/06/05 02:37:32;;;;;;;10.18;5.67;;;23.50;76.40;;;;;;1810204;79;21087;-60
2022/06/05 02:40:35;;;;;;;8.68;5.03;;;23.50;76.50;;;;;;1810549;79;21069;-60
2022/06/05 02:43:13;;;;;;;11.35;5.85;;;23.40;76.70;;;;;;1810566;79;21033;-60
2022/06/05 02:46:07;;;;;;;10.25;5.62;;;23.50;76.80;;;;;;1810449;79;21139;-60
2022/06/05 02:48:45;;;;;;;11.10;5.50;;;23.50;76.80;;;;;;1810912;79;21028;-60
2022/06/05 02:51:29;;;;;;;12.53;5.92;;;23.50;76.80;;;;;;1810939;78;21060;-60
2022/06/05 02:54:00;;;;;;;16.30;6.55;;;23.50;76.90;;;;;;1810602;79;21542;-60
2022/06/05 02:56:31;;;;;;;12.95;6.72;;;23.60;76.80;;;;;;1810480;78;21154;-60
2022/06/05 02:59:03;;;;;;;14.07;7.75;;;23.60;76.80;;;;;;1810696;79;21044;-60
2022/06/05 03:04:19;;;;;;;11.10;6.40;;;23.60;76.70;;;;;;1810559;79;21645;-60
2022/06/05 03:06:48;;;;;;;13.15;5.72;;;23.70;76.70;;;;;;1810598;78;21157;-60
2022/06/05 03:09:18;;;;;;;7.40;5.58;;;23.70;76.80;;;;;;1810564;78;21044;-60
2022/06/05 03:11:47;;;;;;;12.80;7.78;;;23.80;76.80;;;;;;1810460;79;21120;-59
2022/06/05 03:14:16;;;;;;;15.60;7.95;;;23.80;76.60;;;;;;1810529;79;21037;-60
2022/06/05 03:16:45;;;;;;;10.88;7.42;;;23.90;76.40;;;;;;1810513;79;21040;-60
2022/06/05 03:19:14;;;;;;;11.95;7.55;;;23.90;76.20;;;;;;1810520;79;21017;-60
2022/06/05 03:21:43;;;;;;;10.70;7.17;;;23.90;76.30;;;;;;1810611;79;21044;-60
2022/06/05 03:24:13;;;;;;;12.28;7.92;;;23.80;76.30;;;;;;1810480;79;21499;-59
2022/06/05 03:26:43;;;;;;;8.88;7.45;;;23.80;76.40;;;;;;1810384;79;21447;-60
2022/06/05 03:29:12;;;;;;;10.85;7.00;;;23.90;76.70;;;;;;1810445;79;21061;-59
2022/06/05 03:31:41;;;;;;;12.40;8.63;;;23.90;76.90;;;;;;1810335;79;21464;-59
2022/06/05 03:34:10;;;;;;;13.98;8.03;;;24.00;77.00;;;;;;1810490;79;21104;-59
2022/06/05 03:36:40;;;;;;;13.78;7.70;;;24.10;76.80;;;;;;1810424;79;21092;-59
2022/06/05 03:39:09;;;;;;;12.90;8.18;;;24.10;76.80;;;;;;1810386;79;21124;-59
2022/06/05 03:41:40;;;;;;;14.03;8.60;;;24.20;76.80;;;;;;1810402;79;21036;-59
2022/06/05 03:44:10;;;;;;;10.48;7.55;;;24.20;76.60;;;;;;1810520;79;21092;-59
2022/06/05 03:46:39;;;;;;;13.28;8.30;;;24.20;76.50;;;;;;1810356;78;21048;-59
2022/06/05 03:49:09;;;;;;;15.75;8.68;;;24.30;76.50;;;;;;1810509;79;21072;-59
2022/06/05 03:51:38;;;;;;;10.70;8.18;;;24.30;76.30;;;;;;1810410;79;21040;-59
2022/06/05 03:54:08;;;;;;;11.20;8.05;;;24.30;76.90;;;;;;1810374;79;21501;-60
2022/06/05 03:56:37;;;;;;;14.38;6.97;;;24.40;76.10;;;;;;1810484;79;21029;-59
2022/06/05 03:59:06;;;;;;;15.30;7.78;;;24.50;75.90;;;;;;1810589;79;21040;-59
2022/06/05 04:01:36;;;;;;;15.43;7.03;;;24.50;75.60;;;;;;1810674;79;21045;-59
2022/06/05 04:04:05;;;;;;;19.65;7.72;;;24.60;75.60;;;;;;1810566;79;21037;-59
2022/06/05 04:06:35;;;;;;;11.48;6.80;;;24.60;75.80;;;;;;1810457;79;21164;-59
2022/06/05 04:09:06;;;;;;;9.63;6.85;;;24.70;75.70;;;;;;1817382;78;21072;-60
2022/06/05 04:11:37;;;;;;;14.38;8.15;;;24.90;75.50;;;;;;1822112;77;21032;-59
2022/06/05 04:14:07;;;;;;;13.72;7.90;;;25.00;75.00;;;;;;1822012;79;21064;-60
2022/06/05 04:16:38;;;;;;;17.82;7.55;;;25.10;74.50;;;;;;1821967;78;21040;-60
2022/06/05 04:19:08;;;;;;;14.38;6.87;;;25.20;74.90;;;;;;1822038;79;21102;-60
2022/06/05 04:21:39;;;;;;;10.63;7.33;;;25.20;74.00;;;;;;1821993;78;21040;-60
2022/06/05 04:24:08;;;;;;;10.93;7.28;;;25.30;73.80;;;;;;1821972;78;21491;-60
2022/06/05 04:26:37;;;;;;;11.40;7.00;;;25.30;73.70;;;;;;1821966;79;21079;-60
2022/06/05 04:29:06;;;;;;;11.38;7.37;;;25.30;73.40;;;;;;1822085;79;21451;-60
2022/06/05 04:31:38;;;;;;;12.80;7.35;;;25.40;73.40;;;;;;1822115;79;21028;-60
2022/06/05 04:34:09;;;;;;;16.95;7.67;;;25.40;73.30;;;;;;1822038;78;21040;-60
2022/06/05 04:36:38;;;;;;;13.80;7.53;;;25.40;73.40;;;;;;1822026;79;21036;-60
2022/06/05 04:39:07;;;;;;;11.70;6.90;;;25.40;73.40;;;;;;1822038;79;21021;-60
2022/06/05 04:41:37;;;;;;;13.43;7.25;;;25.40;73.20;;;;;;1822040;78;21124;-60
2022/06/05 04:44:08;;;;;;;12.82;6.83;;;25.50;73.20;;;;;;1822046;79;21016;-60
2022/06/05 04:46:38;;;;;;;9.50;7.20;;;25.50;73.20;;;;;;1822085;79;21127;-60
2022/06/05 04:49:07;;;;;;;14.85;7.15;;;25.60;73.20;;;;;;1821978;78;21033;-60
2022/06/05 04:51:37;;;;;;;11.78;6.72;;;25.70;73.10;;;;;;1821952;79;21110;-60
2022/06/05 04:54:08;;;;;;;14.90;7.25;;;25.70;72.90;;;;;;1821967;79;21028;-60
2022/06/05 04:56:37;;;;;;;8.55;6.67;;;25.80;72.80;;;;;;1821985;78;21044;-60
2022/06/05 04:59:06;;;;;;;7.67;6.53;;;25.90;72.20;;;;;;1822050;78;21040;-60
2022/06/05 05:01:38;;;;;;;10.32;6.42;;;25.90;71.80;;;;;;1822028;79;21107;-60
2022/06/05 05:04:12;;;;;;;12.37;6.17;;;26.00;71.60;;;;;;1821983;79;21044;-60
2022/06/05 05:06:43;;;;;;;10.15;6.58;;;26.10;71.40;;;;;;1822031;79;21072;-60
2022/06/05 05:09:12;;;;;;;13.38;6.85;;;26.20;70.90;;;;;;1821860;77;21165;-60
2022/06/05 05:11:42;;;;;;;10.75;6.03;;;26.30;70.60;;;;;;1821921;79;21087;-60
2022/06/05 05:14:12;;;;;;;13.78;6.78;;;26.30;70.10;;;;;;1821891;79;21108;-60
2022/06/05 05:16:42;;;;;;;10.78;7.03;;;26.40;70.40;;;;;;1821971;78;21083;-60
2022/06/05 05:19:11;;;;;;;12.13;6.97;;;26.50;70.50;;;;;;1821760;79;21479;-60
2022/06/05 05:21:40;;;;;;;17.60;8.50;;;26.60;70.30;;;;;;1821962;79;21091;-60
2022/06/05 05:24:09;;;;;;;14.65;8.10;;;26.70;70.10;;;;;;1821917;79;21028;-60
2022/06/05 05:26:38;;;;;;;12.82;7.00;;;26.80;70.10;;;;;;1821925;78;21091;-60
2022/06/05 05:29:07;;;;;;;15.70;6.97;;;26.80;70.10;;;;;;1821947;78;21028;-60
2022/06/05 05:31:39;;;;;;;11.20;7.03;;;26.90;69.80;;;;;;1821936;78;21349;-60
2022/06/05 05:34:09;;;;;;;14.60;7.92;;;27.00;69.70;;;;;;1822063;78;21016;-60
2022/06/05 05:36:39;;;;;;;11.78;7.78;;;27.00;69.50;;;;;;1821953;79;21032;-60
2022/06/05 05:42:09;;;;;;;12.45;7.10;;;27.20;69.10;;;;;;1822049;79;21122;-60
2022/06/05 05:44:47;;;;;;;35.08;8.35;;;27.30;69.20;;;;;;1821862;78;21503;-61
2022/06/05 05:47:21;;;;;;;12.88;6.50;;;27.40;69.40;;;;;;1822058;79;21048;-60
2022/06/05 05:49:57;;;;;;;;;;;27.50;67.70;;;;;;1824671;79;21114;-60
2022/06/05 05:52:27;;;;;;;12.53;6.70;;;27.50;67.00;;;;;;1822034;79;20107;-60
2022/06/05 05:54:56;;;;;;;9.95;6.55;;;27.60;67.20;;;;;;1821945;78;21036;-60
2022/06/05 05:57:26;;;;;;;15.95;6.70;;;27.70;67.20;;;;;;1821993;79;21118;-60
2022/06/05 05:59:55;;;;;;;11.73;7.12;;;27.80;66.50;;;;;;1821981;78;21048;-60
2022/06/05 06:02:26;;;;;;;12.15;7.00;;;27.80;66.30;;;;;;1822014;78;21041;-60
2022/06/05 06:04:55;;;;;;;16.55;6.75;;;27.90;66.00;;;;;;1821889;79;21106;-60
2022/06/05 06:07:25;;;;;;;19.30;7.65;;;27.90;65.50;;;;;;1822008;79;21041;-60
2022/06/05 06:09:54;;;;;;;13.48;7.28;;;27.90;65.50;;;;;;1821971;77;21155;-60
2022/06/05 06:12:24;;;;;;;14.20;8.23;;;28.00;65.50;;;;;;1822142;77;21099;-60
2022/06/05 06:14:53;;;;;;;11.65;6.53;;;28.00;65.50;;;;;;1821953;78;21064;-60
2022/06/05 06:17:23;;;;;;;15.45;7.80;;;28.10;65.50;;;;;;1822009;77;21064;-60
2022/06/05 06:19:52;;;;;;;13.88;7.03;;;28.20;65.30;;;;;;1822128;79;21095;-60
2022/06/05 06:22:22;;;;;;;20.05;6.08;;;28.30;64.80;;;;;;1822002;79;21091;-60
2022/06/05 06:24:52;;;;;;;13.60;5.45;;;28.30;63.60;;;;;;1821922;78;21470;-60
2022/06/05 06:27:21;;;;;;;12.98;4.95;;;28.40;62.30;;;;;;1821892;79;21036;-60
2022/06/05 06:29:50;;;;;;;13.65;5.53;;;28.40;61.50;;;;;;1821913;78;21094;-60
2022/06/05 06:32:19;;;;;;;11.75;5.55;;;28.50;61.70;;;;;;1822106;79;21029;-60
2022/06/05 06:34:48;;;;;;;14.95;6.15;;;28.50;61.50;;;;;;1821999;79;21032;-60
2022/06/05 06:37:20;;;;;;;16.57;6.03;;;28.50;61.40;;;;;;1822091;79;21036;-60
2022/06/05 06:39:48;;;;;;;15.05;5.25;;;28.60;61.60;;;;;;1822078;78;21471;-60
2022/06/05 06:42:17;;;;;;;12.05;5.92;;;28.70;61.90;;;;;;1822079;79;21052;-60
2022/06/05 06:44:48;;;;;;;21.52;9.55;;;28.80;61.80;;;;;;1821283;79;21035;-60
2022/06/05 06:47:17;;;;;;;20.65;10.00;;;28.90;61.30;;;;;;1822065;79;21110;-60
2022/06/05 06:49:47;;;;;;;30.85;7.03;;;28.90;61.30;;;;;;1821981;79;21009;-60
2022/06/05 06:52:16;;;;;;;10.82;5.75;;;29.00;61.20;;;;;;1822081;79;21040;-60
2022/06/05 06:54:48;;;;;;;21.80;8.80;;;29.10;60.80;;;;;;1822094;77;21072;-60
2022/06/05 06:57:16;;;;;;;14.35;5.53;;;29.10;60.80;;;;;;1822072;78;21006;-61
2022/06/05 06:59:45;;;;;;;15.08;5.12;;;29.10;60.80;;;;;;1822060;78;21020;-60
2022/06/05 07:02:14;;;;;;;16.93;5.60;;;29.10;60.90;;;;;;1822102;79;21040;-60
2022/06/05 07:04:45;;;;;;;13.20;5.28;;;29.10;60.50;;;;;;1821992;79;21086;-60
2022/06/05 07:07:14;;;;;;;15.03;4.50;;;29.10;60.10;;;;;;1821944;78;21146;-60
2022/06/05 07:09:43;;;;;;;15.03;5.50;;;29.20;59.60;;;;;;1820780;78;21037;-60
2022/06/05 07:12:13;;;;;;;18.15;5.00;;;29.30;59.30;;;;;;1810468;79;21194;-60
2022/06/05 07:14:42;;;;;;;12.20;4.28;;;29.30;58.00;;;;;;1810440;79;21170;-60
2022/06/05 07:17:11;;;;;;;10.53;5.42;;;29.40;57.00;;;;;;1810415;79;21037;-60
2022/06/05 07:19:40;;;;;;;18.98;4.17;;;29.40;56.40;;;;;;1810422;79;21031;-60
2022/06/05 07:22:09;;;;;;;10.95;3.80;;;29.40;56.20;;;;;;1810274;79;21032;-60
2022/06/05 07:24:38;;;;;;;14.68;4.58;;;29.50;56.40;;;;;;1810316;79;21013;-60
2022/06/05 07:27:08;;;;;;;17.42;5.30;;;29.50;56.30;;;;;;1810351;79;21041;-60
2022/06/05 07:29:37;;;;;;;9.98;4.03;;;29.50;56.60;;;;;;1810386;79;21095;-61
2022/06/05 07:32:07;;;;;;;14.58;5.67;;;29.60;56.80;;;;;;1810478;79;21008;-60
2022/06/05 07:34:36;;;;;;;12.70;4.50;;;29.70;57.00;;;;;;1810449;79;21100;-60
2022/06/05 07:37:06;;;;;;;19.92;6.30;;;29.70;56.90;;;;;;1810439;78;21041;-60
2022/06/05 07:39:35;;;;;;;15.05;5.70;;;29.80;55.60;;;;;;1810383;79;21091;-60
2022/06/05 07:42:05;;;;;;;17.92;6.87;;;29.90;56.00;;;;;;1810378;79;21057;-60
2022/06/05 07:44:35;;;;;;;12.68;5.67;;;29.90;56.10;;;;;;1810496;79;21021;-60
2022/06/05 07:47:07;;;;;;;14.95;8.20;;;29.90;56.90;;;;;;1810329;79;21041;-60
2022/06/05 07:49:41;;;;;;;13.80;6.40;;;29.90;57.00;;;;;;1810339;79;21057;-61
2022/06/05 07:54:58;;;;;;;13.10;5.72;;;29.90;56.80;;;;;;1810431;79;21084;-60
2022/06/05 07:57:28;;;;;;;17.85;6.10;;;29.90;57.10;;;;;;1810449;79;21032;-60
2022/06/05 07:59:57;;;;;;;11.83;5.78;;;29.90;56.80;;;;;;1810330;79;21527;-61
2022/06/05 08:02:28;;;;;;;16.57;5.97;;;29.90;57.70;;;;;;1810513;78;21029;-60
2022/06/05 08:04:57;;;;;;;23.55;5.10;;;30.00;58.20;;;;;;1810362;79;21103;-61
2022/06/05 08:07:29;;;;;;;9.83;4.40;;;30.10;57.40;;;;;;1810387;79;21025;-60
2022/06/05 08:09:58;;;;;;;16.95;5.05;;;30.10;56.50;;;;;;1810408;79;21121;-60
2022/06/05 08:12:30;;;;;;;13.95;4.72;;;30.20;55.30;;;;;;1821336;79;21507;-61
2022/06/05 08:15:18;;;;;;;13.95;4.80;;;30.20;55.80;;;;;;1821232;77;21044;-60
2022/06/05 08:17:47;;;;;;;11.05;5.50;;;30.30;56.40;;;;;;1846444;78;21070;-60
2022/06/05 08:20:17;;;;;;;13.30;4.62;;;30.40;56.50;;;;;;1890571;76;21029;-60
2022/06/05 08:22:46;;;;;;;13.13;4.40;;;30.40;55.30;;;;;;1836310;78;21095;-60
2022/06/05 08:25:16;;;;;;;11.22;4.33;;;30.40;55.90;;;;;;1814454;79;21046;-60
2022/06/05 08:27:46;;;;;;;12.50;4.60;;;30.40;56.60;;;;;;1890703;76;21037;-60
2022/06/05 08:30:15;;;;;;;8.58;4.90;;;30.40;56.50;;;;;;1835924;78;21061;-60
2022/06/05 08:32:45;;;;;;;13.38;4.78;;;30.50;56.80;;;;;;1814398;79;21115;-60
2022/06/05 08:35:14;;;;;;;13.98;4.75;;;30.50;56.80;;;;;;1890649;76;21041;-60
2022/06/05 08:43:28;;;;;;;10.40;4.92;;;30.60;56.20;;;;;;1890602;76;21151;-60
2022/06/05 08:46:18;;;;;;;11.90;5.10;;;30.70;56.80;;;;;;1824833;78;21053;-60
2022/06/05 08:48:50;;;;;;;13.62;5.70;;;30.70;57.20;;;;;;1814328;79;21066;-60
2022/06/05 08:51:40;;;;;;;17.90;5.28;;;30.80;57.40;;;;;;1890623;76;21041;-60
2022/06/05 08:54:14;;;;;;;19.55;5.47;;;31.00;56.40;;;;;;1836115;78;21496;-60
2022/06/05 08:56:46;;;;;;;24.07;5.12;;;31.00;55.20;;;;;;1814336;79;21069;-60
2022/06/05 08:59:18;;;;;;;18.55;3.83;;;31.00;54.50;;;;;;1890787;76;21104;-60
2022/06/05 09:01:49;;;;;;;13.75;3.55;;;31.00;53.80;;;;;;1890761;76;21029;-60
2022/06/05 09:04:44;;;;;;;16.05;4.05;;;31.10;53.30;;;;;;1890623;76;21037;-60
2022/06/05 09:07:16;;;;;;;12.30;3.92;;;31.10;54.10;;;;;;1890746;76;21107;-60
2022/06/05 09:09:47;;;;;;;17.02;4.90;;;31.20;54.00;;;;;;1890598;76;21170;-60
2022/06/05 09:12:19;;;;;;;15.93;3.75;;;31.20;53.60;;;;;;1890557;76;21045;-60
2022/06/05 09:14:51;;;;;;;15.45;4.00;;;31.20;53.00;;;;;;1890460;76;21511;-60
2022/06/05 09:17:21;;;;;;;11.70;4.10;;;31.20;53.10;;;;;;1861770;75;21124;-60
2022/06/05 09:19:52;;;;;;;17.10;4.03;;;31.20;53.10;;;;;;1890562;76;21099;-60
2022/06/05 09:22:26;;;;;;;19.65;4.53;;;31.20;53.10;;;;;;1890551;76;21033;-60
2022/06/05 09:25:01;;;;;;;15.72;4.45;;;31.20;53.10;;;;;;1889429;76;21104;-60
2022/06/05 09:27:42;;;;;;;13.62;4.67;;;31.20;53.00;;;;;;1890631;76;21037;-59
2022/06/05 09:30:32;;;;;;;14.40;4.25;;;31.20;53.70;;;;;;1890524;76;21052;-60
2022/06/05 09:33:10;;;;;;;12.82;3.60;;;31.30;52.60;;;;;;1885570;76;21116;-60
2022/06/05 09:35:44;;;;;;;10.20;3.47;;;31.30;52.90;;;;;;1889885;76;21041;-60
2022/06/05 09:38:14;;;;;;;;;;;31.30;52.60;;;;;;1893006;76;21037;-60
2022/06/05 09:40:58;;;;;;;11.63;4.05;;;31.40;49.40;;;;;;1890524;76;20104;-60
2022/06/05 09:44:02;;;;;;;14.23;3.90;;;31.30;51.80;;;;;;1890770;76;21025;-60
2022/06/05 09:46:52;;;;;;;16.73;4.00;;;31.40;52.30;;;;;;1890583;76;21155;-60
2022/06/05 09:49:24;;;;;;;11.95;4.50;;;31.40;52.40;;;;;;1890679;76;21089;-60
2022/06/05 09:51:53;;;;;;;15.65;4.70;;;31.40;52.60;;;;;;1890378;76;21448;-60
2022/06/05 09:54:33;;;;;;;13.93;5.10;;;31.40;53.40;;;;;;1890602;76;21102;-60
2022/06/05 10:00:27;;;;;;;16.93;4.42;;;31.50;52.70;;;;;;1890590;76;21053;-60
2022/06/05 10:02:59;;;;;;;12.07;4.30;;;31.60;52.50;;;;;;1890746;76;21475;-60
2022/06/05 10:05:31;;;;;;;11.95;4.55;;;31.60;52.90;;;;;;1890618;76;21054;-60
2022/06/05 10:08:06;;;;;;;13.72;4.10;;;31.60;52.60;;;;;;1890625;76;21037;-60
2022/06/05 10:10:38;;;;;;;12.15;4.20;;;31.70;51.90;;;;;;1887179;76;21428;-60
2022/06/05 10:13:15;;;;;;;13.50;4.92;;;31.70;51.60;;;;;;1890645;76;21107;-60
2022/06/05 10:16:02;;;;;;;14.07;4.95;;;31.70;52.00;;;;;;1887120;76;21045;-60
2022/06/05 10:18:54;;;;;;;10.45;4.30;;;31.80;52.30;;;;;;1899871;75;21154;-60
2022/06/05 10:21:25;;;;;;;29.45;16.30;;;31.80;51.70;;;;;;1900562;75;21037;-60
2022/06/05 10:24:12;;;;;;;11.33;4.35;;;31.90;51.60;;;;;;1899863;75;21091;-60
2022/06/05 10:26:44;;;;;;;12.15;4.28;;;32.00;51.00;;;;;;1900525;75;21083;-60
2022/06/05 10:29:20;;;;;;;19.10;4.00;;;32.00;50.00;;;;;;1900679;75;21036;-60
2022/06/05 10:32:13;;;;;;;12.45;3.75;;;31.90;50.10;;;;;;1900695;75;21121;-60
2022/06/05 10:34:47;;;;;;;12.65;3.83;;;31.90;50.40;;;;;;1900817;75;21150;-60
2022/06/05 10:37:19;;;;;;;18.12;3.75;;;32.00;50.60;;;;;;1900390;75;21065;-60
2022/06/05 10:39:56;;;;;;;16.07;4.05;;;32.00;49.00;;;;;;1900657;75;21033;-60
2022/06/05 10:42:34;;;;;;;10.82;4.35;;;32.00;50.00;;;;;;1900957;75;21040;-60
2022/06/05 10:45:09;;;;;;;14.73;4.17;;;32.00;50.20;;;;;;1900623;75;21036;-60
2022/06/05 10:47:53;;;;;;;17.62;4.35;;;32.10;50.30;;;;;;1900896;75;21471;-60
2022/06/05 10:50:23;;;;;;;;;;;32.10;50.00;;;;;;1885853;75;21033;-60
2022/06/05 10:53:07;;;;;;;9.85;4.22;;;32.20;49.60;;;;;;1900993;75;20151;-60
2022/06/05 10:55:55;;;;;;;13.10;4.37;;;32.30;50.50;;;;;;1899132;75;21487;-60
2022/06/05 10:58:27;;;;;;;17.85;4.60;;;32.30;50.30;;;;;;1900820;75;21075;-61
2022/06/05 11:01:14;;;;;;;11.43;3.87;;;32.30;50.30;;;;;;1900720;75;21028;-60
2022/06/05 11:04:04;;;;;;;12.60;4.53;;;32.40;50.20;;;;;;1900832;75;21102;-60
2022/06/05 11:06:36;;;;;;;12.73;3.77;;;32.30;49.90;;;;;;1900108;75;21103;-60
2022/06/05 11:09:18;;;;;;;14.00;4.92;;;32.40;49.90;;;;;;1900774;75;21057;-60
2022/06/05 11:14:46;;;;;;;17.77;4.67;;;32.40;49.90;;;;;;1900805;75;21037;-60
2022/06/05 11:17:53;;;;;;;15.35;5.00;;;32.40;49.90;;;;;;1899831;75;21053;-60
2022/06/05 11:20:26;;;;;;;14.58;4.40;;;32.50;50.70;;;;;;1897133;76;21052;-60
2022/06/05 11:23:01;;;;;;;14.93;4.28;;;32.50;50.60;;;;;;1897054;75;20997;-60
2022/06/05 11:25:36;;;;;;;10.10;3.83;;;32.50;49.90;;;;;;1897005;76;21028;-60
2022/06/05 11:28:23;;;;;;;17.85;4.15;;;32.40;50.40;;;;;;1897208;76;21037;-60
2022/06/05 11:30:55;;;;;;;10.15;3.65;;;32.50;50.50;;;;;;1897095;75;21116;-60
2022/06/05 11:33:29;;;;;;;12.50;4.00;;;32.40;49.90;;;;;;1893008;76;21034;-61
2022/06/05 11:36:03;;;;;;;13.32;3.62;;;32.40;50.00;;;;;;1897160;76;21021;-61
2022/06/05 11:38:53;;;;;;;13.58;4.22;;;32.40;50.40;;;;;;1897106;76;21098;-61
2022/06/05 11:41:55;;;;;;;15.48;4.00;;;32.50;49.60;;;;;;1895487;75;21170;-61
2022/06/05 11:44:39;;;;;;;9.43;3.25;;;32.40;50.10;;;;;;1821828;79;21123;-60
2022/06/05 11:47:14;;;;;;;11.73;3.58;;;32.40;49.70;;;;;;1897139;76;21810;-60
2022/06/05 11:49:47;;;;;;;21.05;3.52;;;32.40;49.50;;;;;;1858501;77;21045;-61
2022/06/05 11:52:30;;;;;;;15.50;3.67;;;32.40;49.80;;;;;;1820434;79;21042;-60
2022/06/05 11:55:20;;;;;;;12.27;4.13;;;32.40;49.80;;;;;;1897421;76;21111;-61
2022/06/05 11:57:51;;;;;;;13.85;5.33;;;32.40;50.00;;;;;;1858567;77;21107;-61
2022/06/05 12:00:32;;;;;;;13.88;3.72;;;32.30;49.80;;;;;;1820430;79;21516;-61
2022/06/05 12:03:25;;;;;;;13.43;3.30;;;32.30;50.10;;;;;;1896988;76;21480;-61
2022/06/05 12:06:12;;;;;;;20.85;5.53;;;32.40;50.10;;;;;;1897064;76;21126;-61
2022/06/05 12:08:55;;;;;;;14.03;3.60;;;32.30;50.50;;;;;;1850530;76;21026;-61
2022/06/05 12:11:28;;;;;;;15.90;4.73;;;32.30;50.60;;;;;;1896065;76;21064;-61
2022/06/05 12:14:12;;;;;;;16.62;5.67;;;32.20;50.50;;;;;;1857367;77;21432;-61
2022/06/05 12:16:50;;;;;;;19.80;5.08;;;32.10;50.60;;;;;;1852732;77;21111;-61
2022/06/05 12:19:45;;;;;;;16.65;4.45;;;32.20;50.60;;;;;;1900220;75;21142;-61
2022/06/05 12:22:28;;;;;;;15.35;4.92;;;32.20;50.40;;;;;;1901066;75;21091;-61
2022/06/05 12:25:15;;;;;;;7.13;3.67;;;32.20;49.60;;;;;;1901141;75;21053;-61
2022/06/05 12:28:05;;;;;;;19.05;4.12;;;32.10;49.80;;;;;;1901027;75;21636;-61
2022/06/05 12:30:40;;;;;;;7.35;3.90;;;32.10;49.60;;;;;;1900588;75;21491;-61
2022/06/05 12:33:47;;;;;;;10.65;4.12;;;32.00;49.80;;;;;;1901142;75;21118;-61
2022/06/05 12:36:21;;;;;;;13.43;3.22;;;32.10;50.60;;;;;;1899513;75;21009;-62
2022/06/05 12:39:02;;;;;;;16.10;3.98;;;32.10;50.50;;;;;;1901103;75;21053;-62
2022/06/05 12:41:57;;;;;;;18.40;4.35;;;32.20;50.30;;;;;;1900453;75;21728;-61
2022/06/05 12:44:29;;;;;;;9.73;3.12;;;32.20;51.00;;;;;;1900154;75;21065;-61
2022/06/05 12:47:04;;;;;;;15.83;3.83;;;32.10;49.80;;;;;;1881024;75;21122;-61
2022/06/05 12:49:41;;;;;;;9.68;2.87;;;32.20;49.90;;;;;;1900449;75;21487;-61
2022/06/05 12:52:31;;;;;;;13.98;3.77;;;32.20;49.20;;;;;;1897032;75;21042;-61
2022/06/05 12:55:24;;;;;;;23.38;4.92;;;32.10;49.30;;;;;;1900980;75;20997;-61
2022/06/05 12:57:58;;;;;;;20.23;5.35;;;32.10;49.00;;;;;;1900948;75;21534;-61
2022/06/05 13:00:57;;;;;;;12.37;3.12;;;32.10;49.00;;;;;;1900678;75;21052;-61
2022/06/05 13:03:38;;;;;;;9.38;2.52;;;32.20;48.50;;;;;;1900387;75;21053;-61
2022/06/05 13:06:22;;;;;;;10.95;2.70;;;32.00;47.90;;;;;;1900892;75;21428;-61
2022/06/05 13:08:59;;;;;;;11.10;3.20;;;31.90;47.30;;;;;;1901213;75;21090;-61
2022/06/05 13:11:40;;;;;;;11.03;2.90;;;31.90;47.80;;;;;;1900588;75;21123;-61
2022/06/05 13:14:37;;;;;;;16.65;3.30;;;31.90;47.70;;;;;;1900851;75;21100;-61
2022/06/05 13:17:21;;;;;;;15.95;3.15;;;31.90;47.50;;;;;;1900890;75;21068;-61
2022/06/05 13:19:59;;;;;;;16.65;3.75;;;31.90;47.30;;;;;;1897665;75;21123;-61
2022/06/05 13:22:40;;;;;;;11.90;3.08;;;31.90;47.20;;;;;;1897282;76;21052;-61
2022/06/05 13:25:25;;;;;;;10.75;2.92;;;31.90;46.60;;;;;;1895965;76;21029;-61
2022/06/05 13:28:31;;;;;;;11.53;2.50;;;31.80;46.90;;;;;;1897451;75;21541;-62
2022/06/05 13:31:27;;;;;;;12.47;2.60;;;31.70;45.70;;;;;;1896814;76;21691;-61
2022/06/05 13:34:19;;;;;;;10.00;2.60;;;31.70;46.40;;;;;;1897152;75;21072;-62
2022/06/05 13:36:57;;;;;;;12.53;2.85;;;31.60;46.70;;;;;;1897105;76;21119;-61
2022/06/05 13:39:33;;;;;;;19.90;3.33;;;31.60;47.00;;;;;;1858925;77;21049;-61